.
WxDataArchive / Data Records for 2010-12-15
2010-12-14 December 2010 2010-12-16

Data Records for Wednesday, 15 December 2010

Time	Temp	Chill	HIndex	Humid	Dewpt	 Wind 	HiWind	WindDir	Rain 	Barom 
-----	----	-----	------	-----	-----	------	------	-------	-----	----- 
00:00	11.7	11.7	11.7	81	7.0	0	0	---	0.00	30.149 
00:05	11.7	11.7	11.7	81	7.0	0	1	270	0.00	30.149 
00:10	11.6	11.6	11.6	81	6.9	0	0	---	0.00	30.149 
00:15	11.4	11.4	11.4	81	6.7	0	0	---	0.00	30.150 
00:20	11.2	11.2	11.2	81	6.5	0	0	---	0.00	30.150 
00:25	11.1	11.1	11.1	81	6.4	0	0	---	0.00	30.150 
00:30	10.9	10.9	10.9	81	6.2	0	0	---	0.00	30.150 
00:35	10.7	10.7	10.7	81	6.0	0	0	---	0.00	30.150 
00:40	10.9	10.9	10.9	81	6.2	0	1	270	0.00	30.150 
00:45	11.1	11.1	11.1	82	6.7	0	0	---	0.00	30.150 
00:50	11.4	11.4	11.4	82	7.0	0	0	---	0.00	30.150 
00:55	11.6	11.6	11.6	82	7.2	0	0	---	0.00	30.150 
01:00	11.7	11.7	11.7	82	7.3	0	0	---	0.00	30.149 
01:05	11.7	11.7	11.7	82	7.3	0	0	---	0.00	30.149 
01:10	11.9	11.9	11.9	83	7.8	0	0	---	0.00	30.149 
01:15	11.9	11.9	11.9	83	7.8	0	0	---	0.00	30.145 
01:20	12.1	12.1	12.1	83	7.9	0	1	270	0.00	30.145 
01:25	12.1	12.1	12.1	82	7.7	0	1	270	0.00	30.145 
01:30	11.9	11.9	11.9	82	7.5	0	1	270	0.00	30.144 
01:35	11.9	11.9	11.9	82	7.5	0	0	---	0.00	30.144 
01:40	11.9	11.9	11.9	82	7.5	0	1	270	0.00	30.144 
01:45	11.9	11.9	11.9	82	7.5	0	1	270	0.00	30.145 
01:50	11.9	11.9	11.9	82	7.5	0	2	270	0.00	30.145 
01:55	12.1	12.1	12.1	82	7.7	0	1	270	0.00	30.145 
02:00	12.1	12.1	12.1	82	7.7	0	1	270	0.00	30.145 
02:05	12.3	12.3	12.3	82	7.9	0	0	---	0.00	30.145 
02:10	12.4	12.4	12.4	82	8.0	0	1	270	0.00	30.145 
02:15	12.4	12.4	12.4	82	8.0	0	1	270	0.00	30.151 
02:20	12.4	12.4	12.4	81	7.7	0	2	270	0.00	30.151 
02:25	12.6	12.6	12.6	81	7.9	0	2	270	0.00	30.151 
02:30	12.6	12.6	12.6	81	7.9	0	1	270	0.00	30.154 
02:35	12.8	12.8	12.8	81	8.1	0	1	270	0.00	30.154 
02:40	12.9	12.9	12.9	81	8.2	0	1	270	0.00	30.154 
02:45	13.1	13.1	13.1	81	8.4	0	1	270	0.00	30.161 
02:50	13.3	13.3	13.3	81	8.6	0	2	270	0.00	30.161 
02:55	13.5	13.5	13.5	80	8.5	0	2	270	0.00	30.161 
03:00	13.5	13.5	13.5	80	8.5	0	2	270	0.00	30.156 
03:05	13.5	13.5	13.5	79	8.2	0	2	270	0.00	30.156 
03:10	13.5	13.5	13.5	79	8.2	0	2	270	0.00	30.156 
03:15	13.1	13.1	13.1	78	7.6	0	1	270	0.00	30.155 
03:20	12.9	12.9	12.9	78	7.4	0	1	270	0.00	30.155 
03:25	12.8	12.8	12.8	78	7.3	0	2	270	0.00	30.155 
03:30	12.8	12.8	12.8	78	7.3	0	3	270	0.00	30.160 
03:35	12.6	12.6	12.6	78	7.1	0	1	270	0.00	30.160 
03:40	12.4	12.4	12.4	77	6.6	0	1	270	0.00	30.160 
03:45	12.4	12.4	12.4	77	6.6	0	2	270	0.00	30.163 
03:50	12.1	12.1	12.1	77	6.3	0	1	270	0.00	30.163 
03:55	11.9	11.9	11.9	77	6.1	0	2	270	0.00	30.163 
04:00	11.7	11.7	11.7	77	5.9	0	2	270	0.00	30.163 
04:05	11.6	11.6	11.6	77	5.8	0	1	270	0.00	30.163 
04:10	11.4	11.4	11.4	77	5.6	0	1	270	0.00	30.163 
04:15	11.4	11.4	11.4	77	5.6	0	1	270	0.00	30.167 
04:20	11.2	11.2	11.2	77	5.4	0	2	270	0.00	30.167 
04:25	11.2	11.2	11.2	78	5.7	0	1	270	0.00	30.167 
04:30	11.2	11.2	11.2	78	5.7	0	2	270	0.00	30.164 
04:35	11.2	11.2	11.2	78	5.7	0	1	270	0.00	30.164 
04:40	11.2	11.2	11.2	78	5.7	0	1	270	0.00	30.164 
04:45	11.4	11.4	11.4	78	5.9	0	2	270	0.00	30.163 
04:50	11.6	11.6	11.6	78	6.1	0	1	270	0.00	30.163 
04:55	11.6	11.6	11.6	78	6.1	0	0	---	0.00	30.163 
05:00	11.7	11.7	11.7	78	6.2	0	1	270	0.00	30.164 
05:05	11.9	11.9	11.9	78	6.4	0	1	270	0.00	30.164 
05:10	12.1	12.1	12.1	78	6.6	0	1	270	0.00	30.164 
05:15	12.1	12.1	12.1	78	6.6	0	1	270	0.00	30.160 
05:20	12.1	12.1	12.1	77	6.3	0	1	270	0.00	30.160 
05:25	12.1	12.1	12.1	77	6.3	0	0	---	0.00	30.160 
05:30	12.1	12.1	12.1	77	6.3	0	1	270	0.00	30.154 
05:35	12.1	12.1	12.1	77	6.3	0	1	270	0.00	30.154 
05:40	12.1	12.1	12.1	77	6.3	0	0	---	0.00	30.154 
05:45	12.1	12.1	12.1	77	6.3	0	0	---	0.00	30.155 
05:50	12.1	12.1	12.1	77	6.3	0	1	270	0.00	30.155 
05:55	12.1	12.1	12.1	77	6.3	0	0	---	0.00	30.155 
06:00	11.9	11.9	11.9	77	6.1	0	1	270	0.00	30.152 
06:05	11.9	11.9	11.9	77	6.1	0	2	270	0.00	30.152 
06:10	11.7	11.7	11.7	77	5.9	0	1	270	0.00	30.152 
06:15	11.7	11.7	11.7	77	5.9	0	1	270	0.00	30.153 
06:20	11.7	11.7	11.7	77	5.9	0	1	270	0.00	30.153 
06:25	11.7	11.7	11.7	77	5.9	0	1	270	0.00	30.153 
06:30	11.6	11.6	11.6	77	5.8	0	0	---	0.00	30.151 
06:35	11.6	11.6	11.6	77	5.8	0	1	270	0.00	30.151 
06:40	11.4	11.4	11.4	77	5.6	0	3	270	0.00	30.151 
06:45	11.4	11.4	11.4	78	5.9	0	1	270	0.00	30.151 
06:50	11.4	11.4	11.4	78	5.9	0	2	270	0.00	30.151 
06:55	11.2	11.2	11.2	78	5.7	0	1	270	0.00	30.151 
07:00	11.2	11.2	11.2	78	5.7	0	1	270	0.00	30.146 
07:05	11.2	11.2	11.2	78	5.7	0	1	270	0.00	30.146 
07:10	11.1	11.1	11.1	78	5.6	0	1	270	0.00	30.146 
07:15	10.9	10.9	10.9	78	5.4	0	1	270	0.00	30.141 
07:20	10.9	10.9	10.9	78	5.4	0	1	270	0.00	30.141 
07:25	10.7	10.7	10.7	78	5.2	0	2	270	0.00	30.141 
07:30	10.5	10.5	10.5	79	5.3	0	2	270	0.00	30.138 
07:35	10.5	10.5	10.5	79	5.3	0	0	---	0.00	30.138 
07:40	10.2	10.2	10.2	79	5.0	0	0	---	0.00	30.138 
07:45	10.0	10.0	10.0	79	4.8	0	0	---	0.00	30.141 
07:50	9.7	9.7	9.7	79	4.5	0	0	---	0.00	30.141 
07:55	9.3	9.3	9.3	79	4.1	0	0	---	0.00	30.141 
08:00	9.2	9.2	9.2	79	4.0	0	1	270	0.00	30.142 
08:05	9.0	9.0	9.0	80	4.1	0	1	270	0.00	30.142 
08:10	9.0	9.0	9.0	80	4.1	0	0	---	0.00	30.142 
08:15	8.6	8.6	8.6	80	3.7	0	0	---	0.00	30.143 
08:20	8.4	8.4	8.4	80	3.5	0	0	---	0.00	30.143 
08:25	8.3	8.3	8.3	80	3.4	0	0	---	0.00	30.143 
08:30	8.1	8.1	8.1	80	3.2	0	0	---	0.00	30.154 
08:35	8.3	8.3	8.3	81	3.7	0	0	---	0.00	30.154 
08:40	8.4	8.4	8.4	81	3.8	0	0	---	0.00	30.154 
08:45	8.8	8.8	8.8	82	4.5	0	1	270	0.00	30.153 
08:50	9.2	9.2	9.2	82	4.8	0	0	---	0.00	30.153 
08:55	9.7	9.7	9.7	82	5.3	0	0	---	0.00	30.153 
09:00	10.0	10.0	10.0	82	5.6	0	1	270	0.00	30.153 
09:05	10.4	10.4	10.4	82	6.0	0	1	270	0.00	30.153 
09:10	10.7	10.7	10.7	82	6.3	0	1	270	0.00	30.153 
09:15	11.2	11.2	11.2	81	6.5	0	1	270	0.00	30.156 
09:20	11.6	11.6	11.6	81	6.9	0	1	270	0.00	30.156 
09:25	11.9	11.9	11.9	80	6.9	0	1	270	0.00	30.156 
09:30	12.3	12.3	12.3	80	7.3	0	1	270	0.00	30.153 
09:35	12.6	12.6	12.6	79	7.3	0	1	270	0.00	30.153 
09:40	12.9	12.9	12.9	78	7.4	0	2	270	0.00	30.153 
09:45	13.3	13.3	13.3	78	7.7	0	0	---	0.00	30.153 
09:50	13.6	13.6	13.6	77	7.8	0	0	---	0.00	30.153 
09:55	14.0	14.0	14.0	77	8.1	0	1	270	0.00	30.153 
10:00	14.3	14.3	14.3	76	8.1	0	1	270	0.00	30.155 
10:05	14.6	14.6	14.6	75	8.1	0	1	270	0.00	30.155 
10:10	14.9	14.9	14.9	75	8.4	0	1	270	0.00	30.155 
10:15	15.4	15.4	15.4	74	8.6	0	1	270	0.00	30.168 
10:20	15.7	15.7	15.7	74	8.9	0	1	270	0.00	30.168 
10:25	16.4	16.4	16.4	73	9.3	0	2	270	0.00	30.168 
10:30	16.9	16.9	16.9	73	9.8	1	2	270	0.00	30.168 
10:35	17.3	17.3	17.3	72	9.8	0	3	270	0.00	30.168 
10:40	17.7	17.7	17.7	71	9.9	0	1	270	0.00	30.168 
10:45	18.0	18.0	18.0	71	10.2	0	1	270	0.00	30.166 
10:50	18.3	18.3	18.3	70	10.2	0	1	270	0.00	30.166 
10:55	18.6	18.6	18.6	69	10.2	0	2	270	0.00	30.166 
11:00	18.9	18.9	18.9	69	10.4	0	2	270	0.00	30.164 
11:05	19.2	19.2	19.2	69	10.7	0	1	270	0.00	30.164 
11:10	19.5	19.5	19.5	69	11.0	0	2	270	0.00	30.164 
11:15	19.9	19.9	19.9	68	11.1	0	3	270	0.00	30.151 
11:20	20.2	20.2	20.2	68	11.4	0	1	270	0.00	30.151 
11:25	20.3	20.3	20.3	68	11.5	0	1	270	0.00	30.151 
11:30	20.6	20.6	20.6	67	11.4	0	2	270	0.00	30.146 
11:35	21.0	21.0	21.0	67	11.8	0	1	270	0.00	30.146 
11:40	21.3	21.3	21.3	66	11.7	0	1	270	0.00	30.146 
11:45	21.6	21.6	21.6	66	12.0	0	2	270	0.00	30.133 
11:50	21.9	21.9	21.9	66	12.3	0	2	270	0.00	30.133 
11:55	22.1	22.1	22.1	65	12.2	0	2	270	0.00	30.133 
12:00	22.2	22.2	22.2	64	11.9	0	2	270	0.00	30.131 
12:05	22.5	22.5	22.5	64	12.2	0	1	270	0.00	30.131 
12:10	22.5	22.5	22.5	63	11.8	0	1	270	0.00	30.131 
12:15	22.7	22.7	22.7	63	12.0	0	1	270	0.00	30.131 
12:20	23.0	23.0	23.0	63	12.3	0	2	270	0.00	30.131 
12:25	23.2	23.2	23.2	63	12.5	0	2	270	0.00	30.131 
12:30	23.5	23.5	23.5	63	12.8	0	3	270	0.00	30.129 
12:35	23.6	23.6	23.6	62	12.5	1	2	270	0.00	30.129 
12:40	23.8	23.8	23.8	61	12.3	0	2	270	0.00	30.129 
12:45	23.8	23.8	23.8	61	12.3	1	3	315	0.00	30.127 
12:50	24.1	24.1	24.1	61	12.6	0	2	315	0.00	30.127 
12:55	24.2	24.2	24.2	60	12.3	0	2	315	0.00	30.127 
13:00	24.2	24.2	24.2	59	12.0	1	2	315	0.00	30.119 
13:05	23.9	23.9	23.9	59	11.7	1	2	270	0.00	30.119 
13:10	23.8	23.8	23.8	60	12.0	1	2	270	0.00	30.119 
13:15	23.8	23.8	23.8	61	12.3	1	2	270	0.00	30.115 
13:20	23.8	23.8	23.8	60	12.0	1	3	270	0.00	30.115 
13:25	23.8	23.8	23.8	61	12.3	1	3	248	0.00	30.115 
13:30	23.3	23.3	23.3	60	11.5	0	2	248	0.00	30.114 
13:35	23.0	23.0	23.0	60	11.2	0	2	248	0.00	30.114 
13:40	22.9	22.9	22.9	61	11.5	0	2	248	0.00	30.114 
13:45	22.7	22.7	22.7	61	11.3	0	1	248	0.00	30.103 
13:50	22.5	22.5	22.5	61	11.1	0	1	248	0.00	30.103 
13:55	22.4	22.4	22.4	62	11.4	0	2	248	0.00	30.103 
14:00	22.4	22.4	22.4	62	11.4	0	2	248	0.00	30.099 
14:05	22.9	22.9	22.9	61	11.5	1	2	248	0.00	30.099 
14:10	23.2	23.2	23.2	61	11.8	1	3	0	0.00	30.099 
14:15	23.3	23.3	23.3	60	11.5	0	2	0	0.00	30.093 
14:20	23.3	23.3	23.3	60	11.5	0	3	0	0.00	30.093 
14:25	23.2	23.2	23.2	60	11.4	0	2	248	0.00	30.093 
14:30	23.2	23.2	23.2	60	11.4	0	2	248	0.00	30.086 
14:35	23.2	23.2	23.2	60	11.4	0	1	248	0.00	30.086 
14:40	23.3	23.3	23.3	60	11.5	0	1	248	0.00	30.086 
14:45	23.3	23.3	23.3	59	11.1	0	2	338	0.00	30.083 
14:50	23.3	23.3	23.3	59	11.1	0	2	338	0.00	30.083 
14:55	23.5	23.5	23.5	59	11.3	0	1	338	0.00	30.083 
15:00	23.5	23.5	23.5	59	11.3	0	2	338	0.00	30.082 
15:05	23.6	23.6	23.6	60	11.8	0	2	338	0.00	30.082 
15:10	23.8	23.8	23.8	60	12.0	0	1	338	0.00	30.082 
15:15	23.8	23.8	23.8	59	11.6	0	2	338	0.00	30.083 
15:20	23.8	23.8	23.8	59	11.6	0	1	338	0.00	30.083 
15:25	23.8	23.8	23.8	59	11.6	0	2	338	0.00	30.083 
15:30	23.8	23.8	23.8	58	11.2	0	1	338	0.00	30.086 
15:35	23.8	23.8	23.8	58	11.2	0	0	---	0.00	30.086 
15:40	23.5	23.5	23.5	58	10.9	0	2	338	0.00	30.086 
15:45	23.3	23.3	23.3	58	10.7	0	1	338	0.00	30.085 
15:50	22.9	22.9	22.9	60	11.1	0	2	338	0.00	30.085 
15:55	22.4	22.4	22.4	61	11.0	0	2	338	0.00	30.085 
16:00	22.1	22.1	22.1	61	10.7	0	3	45	0.00	30.083 
16:05	21.9	21.9	21.9	61	10.5	0	1	45	0.00	30.083 
16:10	21.8	21.8	21.8	62	10.8	0	2	45	0.00	30.083 
16:15	21.8	21.8	21.8	62	10.8	0	1	45	0.00	30.081 
16:20	21.6	21.6	21.6	62	10.6	0	3	45	0.00	30.081 
16:25	21.4	21.4	21.4	62	10.4	0	3	112	0.00	30.081 
16:30	21.4	21.4	21.4	62	10.4	0	1	315	0.00	30.076 
16:35	21.1	21.1	21.1	62	10.1	0	1	315	0.00	30.076 
16:40	21.0	21.0	21.0	62	10.1	0	1	315	0.00	30.076 
16:45	20.6	20.6	20.6	62	9.7	0	1	315	0.00	30.075 
16:50	20.3	20.3	20.3	63	9.7	0	2	315	0.00	30.075 
16:55	19.9	19.9	19.9	64	9.7	0	0	---	0.00	30.075 
17:00	19.5	19.5	19.5	64	9.3	0	0	---	0.00	30.074 
17:05	19.2	19.2	19.2	65	9.4	0	0	---	0.00	30.074 
17:10	18.9	18.9	18.9	65	9.1	0	0	---	0.00	30.074 
17:15	18.6	18.6	18.6	67	9.5	0	0	---	0.00	30.075 
17:20	18.3	18.3	18.3	67	9.2	0	0	---	0.00	30.075 
17:25	18.0	18.0	18.0	67	8.9	0	0	---	0.00	30.075 
17:30	17.7	17.7	17.7	68	9.0	0	0	---	0.00	30.071 
17:35	17.3	17.3	17.3	69	8.9	0	0	---	0.00	30.071 
17:40	17.0	17.0	17.0	69	8.6	0	0	---	0.00	30.071 
17:45	16.7	16.7	16.7	69	8.3	0	0	---	0.00	30.075 
17:50	16.4	16.4	16.4	70	8.4	0	0	---	0.00	30.075 
17:55	15.9	15.9	15.9	70	7.9	0	0	---	0.00	30.075 
18:00	15.4	15.4	15.4	72	8.0	0	0	---	0.00	30.066 
18:05	15.1	15.1	15.1	73	8.0	0	0	---	0.00	30.066 
18:10	14.8	14.8	14.8	73	7.7	0	0	---	0.00	30.066 
18:15	14.3	14.3	14.3	73	7.3	0	0	---	0.00	30.059 
18:20	14.1	14.1	14.1	74	7.4	0	0	---	0.00	30.059 
18:25	14.0	14.0	14.0	75	7.6	0	0	---	0.00	30.059 
18:30	13.6	13.6	13.6	76	7.5	0	0	---	0.00	30.048 
18:35	13.5	13.5	13.5	77	7.7	0	0	---	0.00	30.048 
18:40	13.3	13.3	13.3	77	7.5	0	0	---	0.00	30.048 
18:45	13.1	13.1	13.1	77	7.3	0	0	---	0.00	30.046 
18:50	12.9	12.9	12.9	78	7.4	0	0	---	0.00	30.046 
18:55	13.1	13.1	13.1	79	7.8	0	0	---	0.00	30.046 
19:00	13.3	13.3	13.3	79	8.0	0	0	---	0.00	30.045 
19:05	13.3	13.3	13.3	79	8.0	0	0	---	0.00	30.045 
19:10	13.1	13.1	13.1	79	7.8	0	0	---	0.00	30.045 
19:15	12.9	12.9	12.9	80	7.9	0	0	---	0.00	30.049 
19:20	12.9	12.9	12.9	80	7.9	0	0	---	0.00	30.049 
19:25	12.8	12.8	12.8	80	7.8	0	0	---	0.00	30.049 
19:30	12.8	12.8	12.8	81	8.1	0	0	---	0.00	30.049 
19:35	12.8	12.8	12.8	81	8.1	0	0	---	0.00	30.049 
19:40	12.8	12.8	12.8	81	8.1	0	0	---	0.00	30.049 
19:45	12.6	12.6	12.6	81	7.9	0	0	---	0.00	30.048 
19:50	12.4	12.4	12.4	81	7.7	0	0	---	0.00	30.048 
19:55	12.1	12.1	12.1	81	7.4	0	0	---	0.00	30.048 
20:00	11.9	11.9	11.9	81	7.2	0	0	---	0.00	30.049 
20:05	11.6	11.6	11.6	81	6.9	0	0	---	0.00	30.049 
20:10	11.6	11.6	11.6	82	7.2	0	0	---	0.00	30.049 
20:15	11.2	11.2	11.2	82	6.8	0	0	---	0.00	30.042 
20:20	11.1	11.1	11.1	82	6.7	0	0	---	0.00	30.042 
20:25	10.7	10.7	10.7	82	6.3	0	0	---	0.00	30.042 
20:30	10.7	10.7	10.7	82	6.3	0	0	---	0.00	30.042 
20:35	10.5	10.5	10.5	83	6.4	0	0	---	0.00	30.042 
20:40	10.4	10.4	10.4	83	6.3	0	0	---	0.00	30.042 
20:45	10.4	10.4	10.4	83	6.3	0	0	---	0.00	30.046 
20:50	10.5	10.5	10.5	84	6.6	0	0	---	0.00	30.046 
20:55	10.4	10.4	10.4	84	6.5	0	0	---	0.00	30.046 
21:00	10.4	10.4	10.4	84	6.5	0	0	---	0.00	30.048 
21:05	10.2	10.2	10.2	84	6.3	0	0	---	0.00	30.048 
21:10	10.2	10.2	10.2	84	6.3	0	0	---	0.00	30.048 
21:15	10.0	10.0	10.0	84	6.2	0	0	---	0.00	30.046 
21:20	9.9	9.9	9.9	84	6.1	0	0	---	0.00	30.046 
21:25	9.9	9.9	9.9	84	6.1	0	0	---	0.00	30.046 
21:30	9.7	9.7	9.7	84	5.9	0	0	---	0.00	30.030 
21:35	9.9	9.9	9.9	85	6.3	0	0	---	0.00	30.030 
21:40	9.9	9.9	9.9	85	6.3	0	0	---	0.00	30.030 
21:45	9.9	9.9	9.9	85	6.3	0	0	---	0.00	30.020 
21:50	9.9	9.9	9.9	85	6.3	0	0	---	0.00	30.020 
21:55	9.9	9.9	9.9	85	6.3	0	0	---	0.00	30.020 
22:00	9.9	9.9	9.9	85	6.3	0	0	---	0.00	30.015 
22:05	9.9	9.9	9.9	85	6.3	0	0	---	0.00	30.015 
22:10	10.0	10.0	10.0	85	6.4	0	0	---	0.00	30.015 
22:15	10.2	10.2	10.2	85	6.6	0	0	---	0.00	30.007 
22:20	10.2	10.2	10.2	85	6.6	0	0	---	0.00	30.007 
22:25	10.2	10.2	10.2	85	6.6	0	0	---	0.00	30.007 
22:30	10.2	10.2	10.2	85	6.6	0	0	---	0.00	30.001 
22:35	10.2	10.2	10.2	85	6.6	0	0	---	0.00	30.001 
22:40	10.2	10.2	10.2	85	6.6	0	0	---	0.00	30.001 
22:45	10.2	10.2	10.2	85	6.6	0	0	---	0.00	29.996 
22:50	10.4	10.4	10.4	86	7.1	0	0	---	0.00	29.996 
22:55	10.4	10.4	10.4	86	7.1	0	0	---	0.00	29.996 
23:00	10.4	10.4	10.4	86	7.1	0	0	---	0.00	29.995 
23:05	10.5	10.5	10.5	86	7.2	0	0	---	0.00	29.995 
23:10	10.5	10.5	10.5	86	7.2	0	0	---	0.00	29.995 
23:15	10.5	10.5	10.5	86	7.2	0	0	---	0.00	29.990 
23:20	10.4	10.4	10.4	86	7.1	0	0	---	0.00	29.990 
23:25	10.4	10.4	10.4	86	7.1	0	0	---	0.00	29.990 
23:30	10.5	10.5	10.5	86	7.2	0	0	---	0.00	29.976 
23:35	10.5	10.5	10.5	86	7.2	0	0	---	0.00	29.976 
23:40	10.4	10.4	10.4	86	7.1	0	0	---	0.00	29.976 
23:45	10.4	10.4	10.4	86	7.1	0	0	---	0.00	29.967 
23:50	10.2	10.2	10.2	86	6.9	0	0	---	0.00	29.967 
23:55	10.2	10.2	10.2	86	6.9	0	0	---	0.00	29.967 

CoCoRaHS
IN-AL-39
A2 Web Hosting
Creative Commons License
GoDaddy
search engine by freefind advanced

loaded 2018-11-16 00:14:34 • last modified 2010-11-18 10:43:29
Privacy PolicyDisclaimer
• wx.awcolley.com is powered by PmWiki v.2002016 •
• all content (unless otherwise noted) © 2018 A W Colley